sensor_id;sensor_type;location;lat;lon;timestamp;temperature;humidity
66831;DHT22;53739;44.224;22.528;2022-10-16T05:41:35;180.00;2252.80
66831;DHT22;53739;44.224;22.528;2022-10-16T05:53:18;180.10;2252.80
66831;DHT22;53739;44.224;22.528;2022-10-16T06:20:10;230.60;2252.80
66831;DHT22;53739;44.224;22.528;2022-10-16T06:29:02;230.90;2252.80
66831;DHT22;53739;44.224;22.528;2022-10-16T06:31:38;231.10;2252.80
66831;DHT22;53739;44.224;22.528;2022-10-16T06:34:09;256.10;2252.80
66831;DHT22;53739;44.224;22.528;2022-10-16T06:36:36;256.30;2252.80
66831;DHT22;53739;44.224;22.528;2022-10-16T06:39:02;256.50;2252.80
66831;DHT22;53739;44.224;22.528;2022-10-16T06:41:28;256.60;2252.80
66831;DHT22;53739;44.224;22.528;2022-10-16T06:43:53;281.60;2278.40
66831;DHT22;53739;44.224;22.528;2022-10-16T06:46:22;281.80;2048.00
66831;DHT22;53739;44.224;22.528;2022-10-16T06:49:06;282.10;2278.40
66831;DHT22;53739;44.224;22.528;2022-10-16T06:51:32;282.40;2278.40
66831;DHT22;53739;44.224;22.528;2022-10-16T06:53:59;282.50;2278.40
66831;DHT22;53739;44.224;22.528;2022-10-16T06:59:28;307.60;2304.00
66831;DHT22;53739;44.224;22.528;2022-10-16T07:01:54;307.80;2304.00
66831;DHT22;53739;44.224;22.528;2022-10-16T07:04:20;332.80;2329.60
66831;DHT22;53739;44.224;22.528;2022-10-16T07:06:45;333.10;2329.60
66831;DHT22;53739;44.224;22.528;2022-10-16T07:09:11;333.40;2329.60
66831;DHT22;53739;44.224;22.528;2022-10-16T07:11:37;333.70;2329.60
66831;DHT22;53739;44.224;22.528;2022-10-16T07:14:04;333.70;2329.60
66831;DHT22;53739;44.224;22.528;2022-10-16T07:16:30;358.60;2329.60
66831;DHT22;53739;44.224;22.528;2022-10-16T07:19:00;359.00;2329.60
66831;DHT22;53739;44.224;22.528;2022-10-16T07:21:27;359.20;2329.60
66831;DHT22;53739;44.224;22.528;2022-10-16T07:24:00;384.00;2329.60
66831;DHT22;53739;44.224;22.528;2022-10-16T07:26:31;384.40;2329.60
66831;DHT22;53739;44.224;22.528;2022-10-16T07:28:57;384.70;2329.60
66831;DHT22;53739;44.224;22.528;2022-10-16T07:31:23;384.20;2329.60
66831;DHT22;53739;44.224;22.528;2022-10-16T07:33:49;384.40;2329.60
66831;DHT22;53739;44.224;22.528;2022-10-16T07:36:19;384.40;2329.60
66831;DHT22;53739;44.224;22.528;2022-10-16T07:38:45;384.50;2329.60
66831;DHT22;53739;44.224;22.528;2022-10-16T07:41:12;384.20;2329.60
66831;DHT22;53739;44.224;22.528;2022-10-16T07:43:44;384.50;2329.60
66831;DHT22;53739;44.224;22.528;2022-10-16T07:50:02;384.90;2329.60
66831;DHT22;53739;44.224;22.528;2022-10-16T07:52:28;409.60;2355.20
66831;DHT22;53739;44.224;22.528;2022-10-16T07:55:01;409.90;2355.20
66831;DHT22;53739;44.224;22.528;2022-10-16T07:57:30;409.80;2355.20
66831;DHT22;53739;44.224;22.528;2022-10-16T07:59:58;409.70;2355.20
66831;DHT22;53739;44.224;22.528;2022-10-16T08:02:24;409.80;2355.20
66831;DHT22;53739;44.224;22.528;2022-10-16T08:04:49;410.20;2355.20
66831;DHT22;53739;44.224;22.528;2022-10-16T08:07:15;410.50;2355.20
66831;DHT22;53739;44.224;22.528;2022-10-16T08:09:41;435.50;2355.20
66831;DHT22;53739;44.224;22.528;2022-10-16T08:12:07;435.80;2355.20
66831;DHT22;53739;44.224;22.528;2022-10-16T08:14:36;436.00;2355.20
66831;DHT22;53739;44.224;22.528;2022-10-16T08:17:04;461.00;2380.80
66831;DHT22;53739;44.224;22.528;2022-10-16T08:19:29;461.00;2380.80
66831;DHT22;53739;44.224;22.528;2022-10-16T08:21:57;435.90;2355.20
66831;DHT22;53739;44.224;22.528;2022-10-16T08:24:22;435.30;2355.20
66831;DHT22;53739;44.224;22.528;2022-10-16T08:26:50;435.80;2355.20
66831;DHT22;53739;44.224;22.528;2022-10-16T08:29:18;461.00;2380.80
66831;DHT22;53739;44.224;22.528;2022-10-16T08:31:44;461.40;2380.80
66831;DHT22;53739;44.224;22.528;2022-10-16T08:34:10;461.50;2380.80
66831;DHT22;53739;44.224;22.528;2022-10-16T08:36:38;461.70;2380.80
66831;DHT22;53739;44.224;22.528;2022-10-16T08:43:12;486.80;2380.80
66831;DHT22;53739;44.224;22.528;2022-10-16T08:45:30;487.00;2380.80
66831;DHT22;53739;44.224;22.528;2022-10-16T08:48:10;487.30;2380.80
66831;DHT22;53739;44.224;22.528;2022-10-16T08:50:41;512.00;2380.80
66831;DHT22;53739;44.224;22.528;2022-10-16T08:59:20;487.20;2380.80
66831;DHT22;53739;44.224;22.528;2022-10-16T09:01:49;486.80;2380.80
66831;DHT22;53739;44.224;22.528;2022-10-16T09:07:16;487.10;2380.80
66831;DHT22;53739;44.224;22.528;2022-10-16T09:26:42;512.40;2380.80
66831;DHT22;53739;44.224;22.528;2022-10-16T09:29:30;487.30;2380.80
66831;DHT22;53739;44.224;22.528;2022-10-16T09:31:58;512.30;2380.80
66831;DHT22;53739;44.224;22.528;2022-10-16T09:34:35;512.40;2380.80
66831;DHT22;53739;44.224;22.528;2022-10-16T09:46:05;512.70;2380.80
66831;DHT22;53739;44.224;22.528;2022-10-16T09:48:37;537.80;2406.40
66831;DHT22;53739;44.224;22.528;2022-10-16T09:54:29;512.40;2380.80
66831;DHT22;53739;44.224;22.528;2022-10-16T09:57:03;512.30;2380.80
66831;DHT22;53739;44.224;22.528;2022-10-16T09:59:30;512.60;2380.80
66831;DHT22;53739;44.224;22.528;2022-10-16T10:02:10;512.40;2380.80
66831;DHT22;53739;44.224;22.528;2022-10-16T10:04:37;512.90;2380.80
66831;DHT22;53739;44.224;22.528;2022-10-16T10:07:04;537.80;2406.40
66831;DHT22;53739;44.224;22.528;2022-10-16T10:11:58;538.00;2329.60
66831;DHT22;53739;44.224;22.528;2022-10-16T10:14:30;538.00;2355.20
66831;DHT22;53739;44.224;22.528;2022-10-16T10:45:53;563.90;2022.40
66831;DHT22;53739;44.224;22.528;2022-10-16T10:55:49;538.50;2073.60
66831;DHT22;53739;44.224;22.528;2022-10-16T11:00:48;563.50;2048.00
66831;DHT22;53739;44.224;22.528;2022-10-16T11:05:45;538.50;1868.80
66831;DHT22;53739;44.224;22.528;2022-10-16T11:08:19;563.40;2048.00
66831;DHT22;53739;44.224;22.528;2022-10-16T11:10:54;563.30;1920.00
66831;DHT22;53739;44.224;22.528;2022-10-16T11:13:36;563.60;1920.00
66831;DHT22;53739;44.224;22.528;2022-10-16T11:16:11;563.60;1843.20
66831;DHT22;53739;44.224;22.528;2022-10-16T11:21:23;563.60;1740.80
66831;DHT22;53739;44.224;22.528;2022-10-16T11:26:17;564.00;1843.20
66831;DHT22;53739;44.224;22.528;2022-10-16T11:28:50;564.10;1792.00
66831;DHT22;53739;44.224;22.528;2022-10-16T11:33:54;564.10;1664.00
66831;DHT22;53739;44.224;22.528;2022-10-16T11:36:27;563.70;1638.40
66831;DHT22;53739;44.224;22.528;2022-10-16T11:39:11;538.50;1689.60
66831;DHT22;53739;44.224;22.528;2022-10-16T11:41:44;563.40;1766.40
66831;DHT22;53739;44.224;22.528;2022-10-16T11:44:14;563.30;1715.20
66831;DHT22;53739;44.224;22.528;2022-10-16T11:46:43;563.70;1817.60
66831;DHT22;53739;44.224;22.528;2022-10-16T11:49:14;563.90;1740.80
66831;DHT22;53739;44.224;22.528;2022-10-16T11:57:17;564.00;1587.20
66831;DHT22;53739;44.224;22.528;2022-10-16T12:02:28;563.50;1638.40
66831;DHT22;53739;44.224;22.528;2022-10-16T12:10:27;563.50;1664.00
66831;DHT22;53739;44.224;22.528;2022-10-16T12:15:47;564.00;1689.60
66831;DHT22;53739;44.224;22.528;2022-10-16T12:18:22;563.60;1510.40
66831;DHT22;53739;44.224;22.528;2022-10-16T12:20:57;563.90;1766.40
66831;DHT22;53739;44.224;22.528;2022-10-16T12:23:29;564.00;1689.60
66831;DHT22;53739;44.224;22.528;2022-10-16T12:25:56;564.10;1664.00
66831;DHT22;53739;44.224;22.528;2022-10-16T12:28:26;564.00;1638.40
66831;DHT22;53739;44.224;22.528;2022-10-16T12:31:14;564.00;1664.00
66831;DHT22;53739;44.224;22.528;2022-10-16T12:33:43;564.10;1664.00
66831;DHT22;53739;44.224;22.528;2022-10-16T12:36:38;564.10;1664.00
66831;DHT22;53739;44.224;22.528;2022-10-16T12:42:19;564.10;1536.00
66831;DHT22;53739;44.224;22.528;2022-10-16T12:47:58;563.60;1510.40
66831;DHT22;53739;44.224;22.528;2022-10-16T12:53:21;563.40;1587.20
66831;DHT22;53739;44.224;22.528;2022-10-16T12:55:52;563.30;1638.40
66831;DHT22;53739;44.224;22.528;2022-10-16T12:58:28;563.20;1561.60
66831;DHT22;53739;44.224;22.528;2022-10-16T13:10:03;538.40;1536.00
66831;DHT22;53739;44.224;22.528;2022-10-16T13:27:41;512.80;1587.20
66831;DHT22;53739;44.224;22.528;2022-10-16T15:43:07;435.90;2278.40
66831;DHT22;53739;44.224;22.528;2022-10-16T15:55:20;410.50;2355.20
66831;DHT22;53739;44.224;22.528;2022-10-16T16:07:17;410.00;2355.20
66831;DHT22;53739;44.224;22.528;2022-10-16T16:09:43;409.80;2355.20
66831;DHT22;53739;44.224;22.528;2022-10-16T16:12:10;409.70;2355.20
66831;DHT22;53739;44.224;22.528;2022-10-16T16:14:36;409.60;2355.20
66831;DHT22;53739;44.224;22.528;2022-10-16T16:17:01;384.90;2329.60
66831;DHT22;53739;44.224;22.528;2022-10-16T16:19:27;384.70;2329.60
66831;DHT22;53739;44.224;22.528;2022-10-16T16:21:53;384.70;2329.60
66831;DHT22;53739;44.224;22.528;2022-10-16T16:24:19;384.50;2329.60
66831;DHT22;53739;44.224;22.528;2022-10-16T16:26:46;384.40;2329.60
66831;DHT22;53739;44.224;22.528;2022-10-16T16:29:18;384.30;2329.60
66831;DHT22;53739;44.224;22.528;2022-10-16T16:31:47;384.20;2329.60
66831;DHT22;53739;44.224;22.528;2022-10-16T16:34:23;359.30;2329.60
66831;DHT22;53739;44.224;22.528;2022-10-16T16:45:59;359.00;2329.60
66831;DHT22;53739;44.224;22.528;2022-10-16T16:48:48;359.00;2329.60
66831;DHT22;53739;44.224;22.528;2022-10-16T17:03:57;358.60;2329.60
66831;DHT22;53739;44.224;22.528;2022-10-16T17:06:24;358.40;2329.60
66831;DHT22;53739;44.224;22.528;2022-10-16T17:08:50;358.40;2329.60
66831;DHT22;53739;44.224;22.528;2022-10-16T17:11:20;333.70;2329.60
66831;DHT22;53739;44.224;22.528;2022-10-16T17:13:46;333.70;2329.60
66831;DHT22;53739;44.224;22.528;2022-10-16T17:16:15;358.40;2329.60
66831;DHT22;53739;44.224;22.528;2022-10-16T17:24:48;333.50;2329.60
66831;DHT22;53739;44.224;22.528;2022-10-16T17:27:15;333.50;2329.60
66831;DHT22;53739;44.224;22.528;2022-10-16T17:29:41;333.40;2329.60
66831;DHT22;53739;44.224;22.528;2022-10-16T17:32:06;333.40;2329.60
66831;DHT22;53739;44.224;22.528;2022-10-16T17:34:32;333.20;2329.60
66831;DHT22;53739;44.224;22.528;2022-10-16T17:40:24;333.20;2329.60
66831;DHT22;53739;44.224;22.528;2022-10-16T17:43:10;333.10;2329.60
66831;DHT22;53739;44.224;22.528;2022-10-16T17:45:36;333.20;2329.60
66831;DHT22;53739;44.224;22.528;2022-10-16T17:48:05;333.10;2329.60
66831;DHT22;53739;44.224;22.528;2022-10-16T17:50:42;333.00;2329.60
66831;DHT22;53739;44.224;22.528;2022-10-16T17:53:08;333.00;2329.60
66831;DHT22;53739;44.224;22.528;2022-10-16T17:59:01;332.80;2329.60
66831;DHT22;53739;44.224;22.528;2022-10-16T18:01:28;308.10;2304.00
66831;DHT22;53739;44.224;22.528;2022-10-16T18:03:56;332.80;2329.60
66831;DHT22;53739;44.224;22.528;2022-10-16T18:06:37;308.00;2304.00
66831;DHT22;53739;44.224;22.528;2022-10-16T18:09:03;308.10;2304.00
66831;DHT22;53739;44.224;22.528;2022-10-16T18:11:52;308.10;2304.00
66831;DHT22;53739;44.224;22.528;2022-10-16T18:14:37;308.00;2304.00
66831;DHT22;53739;44.224;22.528;2022-10-16T18:17:03;308.00;2304.00
66831;DHT22;53739;44.224;22.528;2022-10-16T18:19:31;307.80;2304.00
66831;DHT22;53739;44.224;22.528;2022-10-16T18:25:20;307.70;2304.00
66831;DHT22;53739;44.224;22.528;2022-10-16T18:28:08;307.70;2304.00
66831;DHT22;53739;44.224;22.528;2022-10-16T18:30:36;307.70;2304.00
66831;DHT22;53739;44.224;22.528;2022-10-16T18:33:02;307.70;2304.00
66831;DHT22;53739;44.224;22.528;2022-10-16T18:35:28;307.60;2304.00
66831;DHT22;53739;44.224;22.528;2022-10-16T18:43:32;307.60;2304.00
66831;DHT22;53739;44.224;22.528;2022-10-16T18:54:27;307.30;2304.00
66831;DHT22;53739;44.224;22.528;2022-10-16T18:56:53;307.20;2304.00
66831;DHT22;53739;44.224;22.528;2022-10-16T19:02:40;282.50;2278.40
66831;DHT22;53739;44.224;22.528;2022-10-16T19:05:08;282.50;2278.40
66831;DHT22;53739;44.224;22.528;2022-10-16T19:13:48;282.30;2278.40
66831;DHT22;53739;44.224;22.528;2022-10-16T19:16:16;282.10;2278.40
66831;DHT22;53739;44.224;22.528;2022-10-16T19:21:50;282.30;2278.40
66831;DHT22;53739;44.224;22.528;2022-10-16T19:24:22;282.30;2278.40
66831;DHT22;53739;44.224;22.528;2022-10-16T19:27:05;282.30;2278.40
66831;DHT22;53739;44.224;22.528;2022-10-16T19:29:31;282.10;2278.40
66831;DHT22;53739;44.224;22.528;2022-10-16T19:31:59;282.10;2278.40
66831;DHT22;53739;44.224;22.528;2022-10-16T19:34:40;282.00;2278.40
66831;DHT22;53739;44.224;22.528;2022-10-16T19:37:14;282.00;2278.40
66831;DHT22;53739;44.224;22.528;2022-10-16T19:39:42;281.90;2278.40
66831;DHT22;53739;44.224;22.528;2022-10-16T19:42:28;281.80;2278.40
66831;DHT22;53739;44.224;22.528;2022-10-16T19:45:23;281.70;2278.40
66831;DHT22;53739;44.224;22.528;2022-10-16T19:47:52;281.60;2278.40
66831;DHT22;53739;44.224;22.528;2022-10-16T19:50:53;281.60;2278.40
66831;DHT22;53739;44.224;22.528;2022-10-16T19:53:26;256.90;2252.80
66831;DHT22;53739;44.224;22.528;2022-10-16T19:58:54;256.60;2252.80
66831;DHT22;53739;44.224;22.528;2022-10-16T20:01:26;256.70;2252.80
66831;DHT22;53739;44.224;22.528;2022-10-16T20:10:06;256.80;2252.80
66831;DHT22;53739;44.224;22.528;2022-10-16T20:12:59;256.80;2252.80
66831;DHT22;53739;44.224;22.528;2022-10-16T20:18:29;256.70;2252.80
66831;DHT22;53739;44.224;22.528;2022-10-16T20:36:32;256.60;2201.60
66831;DHT22;53739;44.224;22.528;2022-10-16T20:48:38;256.50;2252.80
66831;DHT22;53739;44.224;22.528;2022-10-16T20:53:43;256.30;2252.80
66831;DHT22;53739;44.224;22.528;2022-10-16T20:56:11;256.30;2252.80
66831;DHT22;53739;44.224;22.528;2022-10-16T20:58:37;256.20;2252.80
66831;DHT22;53739;44.224;22.528;2022-10-16T21:01:14;256.10;2252.80
66831;DHT22;53739;44.224;22.528;2022-10-16T21:03:40;256.10;2252.80
66831;DHT22;53739;44.224;22.528;2022-10-16T21:06:06;256.00;2252.80
66831;DHT22;53739;44.224;22.528;2022-10-16T21:08:33;256.00;2252.80
66831;DHT22;53739;44.224;22.528;2022-10-16T21:10:59;256.10;2252.80
66831;DHT22;53739;44.224;22.528;2022-10-16T21:13:25;231.30;2252.80
66831;DHT22;53739;44.224;22.528;2022-10-16T21:15:59;231.30;2252.80
66831;DHT22;53739;44.224;22.528;2022-10-16T21:18:26;256.00;2252.80
66831;DHT22;53739;44.224;22.528;2022-10-16T21:20:52;231.30;2252.80
66831;DHT22;53739;44.224;22.528;2022-10-16T21:23:18;231.30;2252.80
66831;DHT22;53739;44.224;22.528;2022-10-16T21:25:48;231.30;2252.80
66831;DHT22;53739;44.224;22.528;2022-10-16T21:28:13;231.30;2252.80
66831;DHT22;53739;44.224;22.528;2022-10-16T21:30:39;231.20;2252.80
66831;DHT22;53739;44.224;22.528;2022-10-16T21:33:05;231.20;2252.80
66831;DHT22;53739;44.224;22.528;2022-10-16T21:35:30;231.10;2252.80
66831;DHT22;53739;44.224;22.528;2022-10-16T21:37:56;231.10;2252.80
66831;DHT22;53739;44.224;22.528;2022-10-16T21:40:22;231.00;2252.80
66831;DHT22;53739;44.224;22.528;2022-10-16T21:42:50;230.90;2252.80
66831;DHT22;53739;44.224;22.528;2022-10-16T21:45:16;230.90;2252.80
66831;DHT22;53739;44.224;22.528;2022-10-16T21:47:42;230.90;2252.80
66831;DHT22;53739;44.224;22.528;2022-10-16T21:50:08;230.90;2252.80
66831;DHT22;53739;44.224;22.528;2022-10-16T21:52:34;230.90;2252.80
66831;DHT22;53739;44.224;22.528;2022-10-16T21:54:59;230.80;2252.80
66831;DHT22;53739;44.224;22.528;2022-10-16T21:57:25;230.80;2252.80
66831;DHT22;53739;44.224;22.528;2022-10-16T21:59:51;230.70;2252.80
66831;DHT22;53739;44.224;22.528;2022-10-16T22:02:16;230.70;2252.80
66831;DHT22;53739;44.224;22.528;2022-10-16T22:04:42;230.70;2252.80
66831;DHT22;53739;44.224;22.528;2022-10-16T22:07:08;230.70;2252.80
66831;DHT22;53739;44.224;22.528;2022-10-16T22:09:34;230.60;2252.80
66831;DHT22;53739;44.224;22.528;2022-10-16T22:12:02;230.60;2252.80
66831;DHT22;53739;44.224;22.528;2022-10-16T22:14:28;230.70;2252.80
66831;DHT22;53739;44.224;22.528;2022-10-16T22:16:54;230.70;2252.80
66831;DHT22;53739;44.224;22.528;2022-10-16T22:19:20;230.70;2252.80
66831;DHT22;53739;44.224;22.528;2022-10-16T22:21:46;230.60;2252.80
66831;DHT22;53739;44.224;22.528;2022-10-16T22:24:13;230.60;2252.80
66831;DHT22;53739;44.224;22.528;2022-10-16T22:26:39;230.50;2252.80
66831;DHT22;53739;44.224;22.528;2022-10-16T22:29:05;230.50;2252.80
66831;DHT22;53739;44.224;22.528;2022-10-16T22:31:31;230.60;2252.80
66831;DHT22;53739;44.224;22.528;2022-10-16T22:33:57;230.60;2252.80
66831;DHT22;53739;44.224;22.528;2022-10-16T22:36:24;230.50;2252.80
66831;DHT22;53739;44.224;22.528;2022-10-16T22:38:50;230.50;2252.80
66831;DHT22;53739;44.224;22.528;2022-10-16T22:41:19;230.60;2252.80
66831;DHT22;53739;44.224;22.528;2022-10-16T22:43:46;230.60;2252.80
66831;DHT22;53739;44.224;22.528;2022-10-16T22:46:17;230.50;2252.80
66831;DHT22;53739;44.224;22.528;2022-10-16T22:48:43;230.50;2252.80
66831;DHT22;53739;44.224;22.528;2022-10-16T22:51:09;230.50;2252.80
66831;DHT22;53739;44.224;22.528;2022-10-16T22:53:36;230.50;2252.80
66831;DHT22;53739;44.224;22.528;2022-10-16T22:56:02;230.50;2252.80
66831;DHT22;53739;44.224;22.528;2022-10-16T22:58:28;230.50;2252.80
66831;DHT22;53739;44.224;22.528;2022-10-16T23:00:54;230.40;2252.80
66831;DHT22;53739;44.224;22.528;2022-10-16T23:03:23;205.70;2252.80
66831;DHT22;53739;44.224;22.528;2022-10-16T23:05:49;205.70;2252.80
66831;DHT22;53739;44.224;22.528;2022-10-16T23:08:15;205.70;2252.80
66831;DHT22;53739;44.224;22.528;2022-10-16T23:10:44;205.70;2252.80
66831;DHT22;53739;44.224;22.528;2022-10-16T23:13:13;205.70;2252.80
66831;DHT22;53739;44.224;22.528;2022-10-16T23:15:40;205.60;2252.80
66831;DHT22;53739;44.224;22.528;2022-10-16T23:18:07;205.60;2252.80
66831;DHT22;53739;44.224;22.528;2022-10-16T23:23:39;205.60;2252.80
66831;DHT22;53739;44.224;22.528;2022-10-16T23:26:46;205.60;2252.80
66831;DHT22;53739;44.224;22.528;2022-10-16T23:29:52;205.50;2252.80
66831;DHT22;53739;44.224;22.528;2022-10-16T23:32:26;205.40;2252.80
66831;DHT22;53739;44.224;22.528;2022-10-16T23:34:52;205.50;2252.80
66831;DHT22;53739;44.224;22.528;2022-10-16T23:37:18;205.40;2252.80
66831;DHT22;53739;44.224;22.528;2022-10-16T23:39:44;205.30;2252.80
66831;DHT22;53739;44.224;22.528;2022-10-16T23:42:10;205.30;2252.80
66831;DHT22;53739;44.224;22.528;2022-10-16T23:44:36;205.20;2252.80
66831;DHT22;53739;44.224;22.528;2022-10-16T23:47:02;205.20;2252.80
66831;DHT22;53739;44.224;22.528;2022-10-16T23:49:28;205.20;2252.80
66831;DHT22;53739;44.224;22.528;2022-10-16T23:51:55;205.10;2252.80
66831;DHT22;53739;44.224;22.528;2022-10-16T23:54:21;205.20;2252.80
66831;DHT22;53739;44.224;22.528;2022-10-16T23:56:47;205.20;2252.80
66831;DHT22;53739;44.224;22.528;2022-10-16T23:59:13;205.20;2252.80
